Time;durP1;ratioP1;P1;durP2;ratioP2;P2;SDS_P1;SDS_P2;PMS_P1;PMS_P2;Temp;Humidity;BMP_temperature;BMP_pressure;BME280_temperature;BME280_humidity;BME280_pressure;Samples;Min_cycle;Max_cycle;Signal;HPM_P1;HPM_P2
2023/04/20 00:00:16;;;;;;;5.97;2.40;;;;;;;9.24;36.52;102162.13;5276774;28;20034;-69
2023/04/20 00:02:47;;;;;;;4.57;2.25;;;;;;;9.15;35.71;102142.59;5278308;28;20016;-69
2023/04/20 00:05:19;;;;;;;4.50;2.28;;;;;;;9.04;35.95;102139.75;5277177;28;20024;-69
2023/04/20 00:07:50;;;;;;;5.35;2.67;;;;;;;9.17;35.51;102158.22;5275170;28;20177;-69
2023/04/20 00:10:21;;;;;;;5.78;2.55;;;;;;;9.17;36.31;102160.84;5280200;28;20035;-69
2023/04/20 00:12:53;;;;;;;7.47;2.45;;;;;;;9.23;36.42;102160.47;5279209;28;20032;-69
2023/04/20 00:15:24;;;;;;;5.13;2.35;;;;;;;9.02;36.87;102139.88;5276462;28;20043;-69
2023/04/20 00:17:56;;;;;;;5.75;2.78;;;;;;;9.08;36.45;102151.72;5278015;28;20027;-70
2023/04/20 00:20:27;;;;;;;3.83;2.55;;;;;;;9.05;36.10;102140.59;5276168;28;20043;-69
2023/04/20 00:22:59;;;;;;;5.50;2.30;;;;;;;9.01;36.21;102132.94;5276968;28;20017;-69
2023/04/20 00:25:31;;;;;;;7.82;2.08;;;;;;;9.01;36.70;102135.53;5276397;28;20119;-70
2023/04/20 00:28:02;;;;;;;5.45;2.58;;;;;;;8.89;36.49;102123.19;5279718;28;20673;-69
2023/04/20 00:30:33;;;;;;;4.30;2.22;;;;;;;8.89;36.64;102114.50;5276335;28;20023;-70
2023/04/20 00:33:05;;;;;;;4.82;2.20;;;;;;;8.89;37.68;102115.34;5277177;28;20024;-69
2023/04/20 00:35:36;;;;;;;6.32;2.50;;;;;;;8.89;36.86;102122.34;5274991;28;20882;-69
2023/04/20 00:38:07;;;;;;;4.07;2.30;;;;;;;8.94;37.41;102112.47;5278171;28;20193;-69
2023/04/20 00:40:38;;;;;;;4.90;2.22;;;;;;;9.01;36.78;102112.00;5277486;28;20028;-69
2023/04/20 00:43:13;;;;;;;6.57;2.40;;;;;;;9.05;36.92;102106.63;5282018;28;20024;-70
2023/04/20 00:45:45;;;;;;;4.03;2.28;;;;;;;8.94;37.20;102102.88;5275744;28;20107;-70
2023/04/20 00:48:17;;;;;;;6.13;2.40;;;;;;;8.86;37.00;102094.59;5279188;28;20103;-69
2023/04/20 00:50:50;;;;;;;4.43;2.30;;;;;;;8.86;37.30;102096.38;5276781;28;20101;-69
2023/04/20 00:53:21;;;;;;;4.68;2.25;;;;;;;8.86;37.34;102089.38;5280886;28;20029;-69
2023/04/20 00:55:52;;;;;;;10.15;2.20;;;;;;;8.88;36.87;102084.91;5267357;28;20562;-70
2023/04/20 00:58:24;;;;;;;7.15;2.60;;;;;;;8.87;37.09;102078.03;5303303;28;20027;-69
2023/04/20 01:00:55;;;;;;;6.30;2.72;;;;;;;8.83;37.89;102068.69;5298918;28;20905;-69
2023/04/20 01:03:27;;;;;;;4.90;2.20;;;;;;;8.81;37.17;102073.13;5297797;28;20026;-69
2023/04/20 01:05:58;;;;;;;4.82;2.40;;;;;;;8.81;37.46;102067.06;5303755;28;20038;-69
2023/04/20 01:08:30;;;;;;;6.13;2.40;;;;;;;8.75;38.04;102063.91;5299574;28;20578;-69
2023/04/20 01:11:01;;;;;;;4.28;2.10;;;;;;;8.66;38.62;102058.34;5279041;28;20028;-69
2023/04/20 01:13:32;;;;;;;3.20;2.20;;;;;;;8.67;37.86;102060.00;5291766;28;20173;-69
2023/04/20 01:16:04;;;;;;;4.70;2.40;;;;;;;8.71;37.90;102064.13;5292482;28;20028;-69
2023/04/20 01:18:46;;;;;;;4.68;2.30;;;;;;;8.70;38.24;102055.47;5297929;28;20027;-69
2023/04/20 01:21:20;;;;;;;4.20;2.38;;;;;;;8.42;38.84;102040.53;5281203;28;20364;-69
2023/04/20 01:23:51;;;;;;;7.35;2.30;;;;;;;8.39;38.49;102039.84;5297543;28;20028;-69
2023/04/20 01:26:24;;;;;;;5.35;2.28;;;;;;;8.38;39.23;102041.63;5282488;28;20051;-69
2023/04/20 01:28:55;;;;;;;3.33;2.20;;;;;;;8.34;39.19;102041.88;5280871;28;20357;-69
2023/04/20 01:31:27;;;;;;;4.45;2.38;;;;;;;8.28;39.37;102038.66;5299568;28;20302;-69
2023/04/20 01:33:58;;;;;;;3.75;1.90;;;;;;;8.24;40.01;102033.69;5297890;28;20077;-69
2023/04/20 01:36:30;;;;;;;3.65;2.00;;;;;;;8.24;40.07;102023.25;5297472;28;20525;-69
2023/04/20 01:39:01;;;;;;;4.75;2.17;;;;;;;8.13;40.28;102020.41;5298872;28;20077;-69
2023/04/20 01:41:32;;;;;;;3.03;1.80;;;;;;;8.10;40.17;102010.13;5297789;28;20028;-69
2023/04/20 01:44:04;;;;;;;7.22;2.20;;;;;;;8.15;39.71;102015.94;5297102;28;20028;-69
2023/04/20 01:46:39;;;;;;;7.47;2.30;;;;;;;8.26;40.55;102019.63;5295875;28;20028;-70
2023/04/20 01:49:10;;;;;;;3.63;2.13;;;;;;;8.10;40.34;102015.34;5299568;28;20035;-69
2023/04/20 01:51:41;;;;;;;3.45;1.80;;;;;;;7.95;40.58;102001.38;5277620;28;20163;-69
2023/04/20 01:54:13;;;;;;;6.40;2.00;;;;;;;7.81;41.19;102009.97;5299424;28;20024;-69
2023/04/20 01:56:44;;;;;;;3.78;2.35;;;;;;;7.77;41.70;102003.25;5282453;28;20051;-69
2023/04/20 01:59:15;;;;;;;4.72;2.10;;;;;;;7.78;41.52;101997.94;5271761;28;20028;-69
2023/04/20 02:01:46;;;;;;;4.68;2.10;;;;;;;7.89;41.74;101997.34;5257155;28;20193;-69
2023/04/20 02:04:18;;;;;;;5.57;2.50;;;;;;;7.62;41.90;101986.66;5275158;28;20024;-69
2023/04/20 02:06:50;;;;;;;5.47;2.00;;;;;;;7.61;42.54;101984.13;5276893;28;20489;-70
2023/04/20 02:09:21;;;;;;;6.80;2.60;;;;;;;7.56;42.19;101973.94;5278830;28;20043;-69
2023/04/20 02:11:52;;;;;;;3.40;2.03;;;;;;;7.61;42.76;101977.13;5276208;28;20040;-69
2023/04/20 02:14:24;;;;;;;5.32;2.17;;;;;;;7.48;42.34;101974.34;5274074;28;20086;-69
2023/04/20 02:16:55;;;;;;;3.50;1.77;;;;;;;7.45;43.76;101978.88;5276345;28;20032;-69
2023/04/20 02:19:26;;;;;;;4.35;1.80;;;;;;;7.46;43.24;101973.59;5275266;28;20107;-69
2023/04/20 02:21:58;;;;;;;4.82;2.20;;;;;;;7.41;43.39;101970.38;5277265;28;20393;-70
2023/04/20 02:24:29;;;;;;;4.25;2.40;;;;;;;7.23;44.28;101956.56;5258785;28;20562;-70
2023/04/20 02:27:01;;;;;;;4.18;2.13;;;;;;;7.33;43.00;101967.34;5275860;28;20504;-69
2023/04/20 02:29:33;;;;;;;9.75;2.67;;;;;;;7.19;43.49;101943.78;5273041;28;20020;-69
2023/04/20 02:32:04;;;;;;;4.50;1.85;;;;;;;7.24;44.04;101947.00;5258597;28;20119;-69
2023/04/20 02:34:36;;;;;;;3.70;2.20;;;;;;;7.14;43.97;101953.59;5277322;28;20076;-69
2023/04/20 02:37:07;;;;;;;5.13;2.30;;;;;;;7.24;44.00;101953.06;5255633;28;20434;-69
2023/04/20 02:39:39;;;;;;;6.63;2.58;;;;;;;7.17;45.16;101951.69;5278590;28;20557;-70
2023/04/20 02:42:10;;;;;;;5.22;2.15;;;;;;;7.08;45.15;101959.97;5276245;28;20028;-70
2023/04/20 02:44:41;;;;;;;4.57;2.25;;;;;;;7.11;44.61;101953.75;5278177;28;20032;-70
2023/04/20 02:47:12;;;;;;;4.85;2.47;;;;;;;7.05;45.72;101953.19;5276031;28;20062;-70
2023/04/20 02:49:44;;;;;;;4.53;2.80;;;;;;;7.00;46.05;101944.75;5277213;28;20057;-70
2023/04/20 02:52:15;;;;;;;5.00;2.42;;;;;;;6.98;46.44;101940.53;5274383;28;20027;-70
2023/04/20 02:54:46;;;;;;;4.03;2.22;;;;;;;7.02;46.31;101942.91;5279311;28;20040;-70
2023/04/20 02:57:18;;;;;;;5.72;2.60;;;;;;;7.01;47.07;101946.44;5279289;28;20059;-70
2023/04/20 02:59:49;;;;;;;6.07;2.60;;;;;;;6.86;48.03;101930.75;5256877;28;20350;-70
2023/04/20 03:02:21;;;;;;;4.90;2.13;;;;;;;6.98;47.35;101943.16;5274951;28;20027;-70
2023/04/20 03:04:52;;;;;;;5.65;2.83;;;;;;;6.97;48.64;101934.50;5275877;28;20371;-70
2023/04/20 03:07:23;;;;;;;4.82;2.47;;;;;;;6.98;48.13;101932.72;5274703;28;20494;-71
2023/04/20 03:09:55;;;;;;;4.53;2.28;;;;;;;7.03;49.13;101928.94;5276917;28;20028;-70
2023/04/20 03:12:26;;;;;;;6.93;2.30;;;;;;;6.98;49.22;101925.75;5278624;28;20085;-70
2023/04/20 03:14:57;;;;;;;6.10;2.55;;;;;;;7.01;49.43;101920.38;5277304;28;20044;-70
2023/04/20 03:17:28;;;;;;;9.00;2.65;;;;;;;6.94;49.64;101916.41;5274668;28;20064;-71
2023/04/20 03:20:00;;;;;;;5.10;2.47;;;;;;;6.94;49.56;101919.03;5272863;28;20093;-70
2023/04/20 03:22:31;;;;;;;6.00;2.63;;;;;;;6.95;49.73;101912.03;5276176;28;20599;-70
2023/04/20 03:25:02;;;;;;;5.88;2.50;;;;;;;6.91;50.44;101898.34;5276557;28;20024;-70
2023/04/20 03:27:34;;;;;;;6.70;2.40;;;;;;;6.98;50.24;101907.50;5281577;28;20028;-70
2023/04/20 03:30:05;;;;;;;4.47;2.40;;;;;;;7.11;50.59;101901.66;5277570;28;20023;-70
2023/04/20 03:32:37;;;;;;;3.38;2.63;;;;;;;7.15;50.82;101901.41;5281117;28;20033;-70
2023/04/20 03:35:09;;;;;;;4.28;2.42;;;;;;;7.26;50.84;101904.28;5278447;28;20031;-70
2023/04/20 03:37:40;;;;;;;4.03;2.20;;;;;;;7.29;51.32;101904.09;5279585;28;20393;-70
2023/04/20 03:40:12;;;;;;;5.55;2.47;;;;;;;7.34;51.53;101905.63;5281272;28;20496;-70
2023/04/20 03:42:43;;;;;;;4.32;2.90;;;;;;;7.34;51.53;101895.19;5279047;28;20092;-70
2023/04/20 03:45:14;;;;;;;5.00;2.80;;;;;;;7.31;51.34;101885.75;5261333;28;20070;-70
2023/04/20 03:47:46;;;;;;;5.20;2.67;;;;;;;7.37;52.07;101888.06;5275404;28;20028;-70
2023/04/20 03:50:17;;;;;;;4.25;2.58;;;;;;;7.42;52.40;101883.41;5282449;28;20116;-70
2023/04/20 03:52:48;;;;;;;6.40;2.88;;;;;;;7.39;53.03;101880.16;5277432;28;20035;-70
2023/04/20 03:55:20;;;;;;;7.18;2.40;;;;;;;7.43;52.75;101894.72;5279799;28;20033;-70
2023/04/20 03:57:53;;;;;;;4.75;2.30;;;;;;;7.46;53.16;101884.09;5275581;28;20028;-70
2023/04/20 04:00:25;;;;;;;5.90;2.72;;;;;;;7.41;54.04;101879.13;5277828;28;20046;-70
2023/04/20 04:02:56;;;;;;;5.20;2.78;;;;;;;7.47;53.57;101881.41;5282324;28;20052;-71
2023/04/20 04:05:27;;;;;;;4.47;2.67;;;;;;;7.47;54.08;101875.38;5280615;28;20040;-71
2023/04/20 04:07:58;;;;;;;4.30;2.58;;;;;;;7.42;54.21;101872.16;5275502;28;20024;-70
2023/04/20 04:10:30;;;;;;;9.63;3.83;;;;;;;7.51;54.44;101871.66;5275581;28;20517;-70
2023/04/20 04:13:01;;;;;;;4.75;2.42;;;;;;;7.57;54.20;101869.53;5277678;28;20131;-70
2023/04/20 04:15:32;;;;;;;8.38;3.00;;;;;;;7.63;54.38;101870.13;5280754;28;20455;-71
2023/04/20 04:18:04;;;;;;;4.55;2.95;;;;;;;7.60;54.49;101859.88;5274928;28;20028;-70
2023/04/20 04:20:35;;;;;;;3.80;2.67;;;;;;;7.70;54.61;101863.66;5281767;28;20032;-70
2023/04/20 04:23:06;;;;;;;6.43;2.63;;;;;;;7.70;55.07;101861.88;5281047;28;20020;-71
2023/04/20 04:25:40;;;;;;;4.43;2.60;;;;;;;7.74;55.39;101852.13;5279018;28;20230;-70
2023/04/20 04:28:13;;;;;;;4.68;3.13;;;;;;;7.76;55.53;101851.06;5275781;28;20036;-70
2023/04/20 04:30:46;;;;;;;5.28;3.08;;;;;;;7.77;55.07;101846.72;5278997;28;20074;-70
2023/04/20 04:33:17;;;;;;;5.32;2.80;;;;;;;7.81;55.64;101843.00;5277245;28;20409;-70
2023/04/20 04:35:49;;;;;;;4.40;2.50;;;;;;;7.77;55.70;101825.84;5260582;28;20063;-70
2023/04/20 04:38:20;;;;;;;4.60;3.00;;;;;;;7.71;55.67;101802.72;5255852;28;20024;-70
2023/04/20 04:40:52;;;;;;;5.57;2.75;;;;;;;7.90;55.42;101832.03;5253251;28;20063;-70
2023/04/20 04:43:24;;;;;;;7.30;2.78;;;;;;;7.90;56.18;101829.44;5258545;28;20028;-70
2023/04/20 04:45:57;;;;;;;4.20;2.75;;;;;;;7.95;56.55;101816.94;5274236;28;20036;-70
2023/04/20 04:48:29;;;;;;;7.05;2.80;;;;;;;7.95;56.74;101809.13;5278538;28;20370;-70
2023/04/20 04:51:01;;;;;;;4.23;2.57;;;;;;;8.06;56.02;101818.94;5278327;28;20659;-70
2023/04/20 04:53:33;;;;;;;8.52;3.03;;;;;;;8.08;56.97;101824.06;5260220;28;20027;-70
2023/04/20 04:56:05;;;;;;;5.38;2.92;;;;;;;8.08;56.84;101813.63;5280757;28;20084;-70
2023/04/20 04:58:36;;;;;;;6.53;2.93;;;;;;;8.02;57.49;101813.03;5275179;28;20505;-70
2023/04/20 05:01:08;;;;;;;5.97;3.13;;;;;;;8.07;57.78;101812.81;5278042;28;20286;-70
2023/04/20 05:03:39;;;;;;;4.55;3.10;;;;;;;8.09;57.84;101802.25;5273774;28;20024;-70
2023/04/20 05:06:10;;;;;;;4.93;3.13;;;;;;;8.10;57.49;101812.59;5277388;28;20071;-70
2023/04/20 05:08:42;;;;;;;6.35;2.95;;;;;;;8.13;57.51;101803.75;5268835;28;20032;-70
2023/04/20 05:11:13;;;;;;;7.97;3.05;;;;;;;8.17;57.53;101810.47;5257043;28;20284;-70
2023/04/20 05:13:44;;;;;;;4.53;3.05;;;;;;;8.17;57.97;101818.31;5276925;28;20024;-70
2023/04/20 05:16:15;;;;;;;4.93;3.03;;;;;;;8.19;58.70;101806.00;5277733;28;20031;-70
2023/04/20 05:18:47;;;;;;;4.97;3.10;;;;;;;8.23;57.91;101804.91;5278500;28;20415;-71
2023/04/20 05:21:18;;;;;;;5.38;3.28;;;;;;;8.24;58.57;101799.56;5274864;28;20381;-70
2023/04/20 05:23:49;;;;;;;5.50;3.30;;;;;;;8.30;60.27;101808.84;5273618;28;20600;-70
2023/04/20 05:26:21;;;;;;;6.72;2.75;;;;;;;8.32;61.10;101809.56;5279576;28;20028;-70
2023/04/20 05:28:52;;;;;;;7.65;3.40;;;;;;;8.37;62.56;101809.28;5262900;28;20734;-70
2023/04/20 05:31:25;;;;;;;5.85;3.78;;;;;;;8.39;63.02;101812.69;5273518;28;21543;-70
2023/04/20 05:33:56;;;;;;;5.68;3.75;;;;;;;8.42;63.37;101812.50;5276528;28;20023;-70
2023/04/20 05:36:28;;;;;;;4.80;3.15;;;;;;;8.40;61.28;101814.34;5257102;28;20039;-70
2023/04/20 05:39:00;;;;;;;6.53;3.53;;;;;;;8.48;61.31;101810.34;5277515;28;20374;-70
2023/04/20 05:41:31;;;;;;;7.93;3.40;;;;;;;8.51;61.53;101814.53;5277618;28;20309;-70
2023/04/20 05:44:02;;;;;;;7.18;3.63;;;;;;;8.52;60.09;101821.44;5260867;28;20070;-70
2023/04/20 05:46:34;;;;;;;4.93;3.60;;;;;;;8.57;60.55;101810.75;5254497;28;20362;-70
2023/04/20 05:49:05;;;;;;;8.30;3.40;;;;;;;8.60;59.00;101794.84;5274118;28;20030;-70
2023/04/20 05:51:36;;;;;;;6.25;3.08;;;;;;;8.62;59.66;101800.84;5273053;28;20068;-70
2023/04/20 05:54:09;;;;;;;6.45;3.33;;;;;;;8.65;59.66;101788.44;5273071;28;20473;-70
2023/04/20 05:56:40;;;;;;;6.55;3.63;;;;;;;8.70;58.41;101798.59;5273772;28;20048;-69
2023/04/20 05:59:11;;;;;;;4.72;3.03;;;;;;;8.73;58.41;101791.41;5271524;28;20073;-69
2023/04/20 06:01:42;;;;;;;4.75;3.13;;;;;;;8.74;58.59;101802.69;5257492;28;20058;-69
2023/04/20 06:04:14;;;;;;;6.07;3.33;;;;;;;8.76;58.59;101800.84;5275959;28;20050;-69
2023/04/20 06:06:45;;;;;;;5.07;3.45;;;;;;;8.77;58.55;101800.72;5274430;28;20027;-70
2023/04/20 06:09:16;;;;;;;7.03;3.33;;;;;;;8.84;58.79;101797.75;5271747;28;20024;-69
2023/04/20 06:11:48;;;;;;;8.20;4.30;;;;;;;8.85;58.62;101795.03;5273455;28;20059;-69
2023/04/20 06:14:19;;;;;;;6.50;3.78;;;;;;;8.89;58.45;101787.84;5276170;28;20020;-70
2023/04/20 06:16:50;;;;;;;9.25;3.92;;;;;;;8.94;57.99;101796.22;5276217;28;20039;-71
2023/04/20 06:19:21;;;;;;;4.90;3.30;;;;;;;8.92;58.06;101783.25;5275526;28;20031;-71
2023/04/20 06:21:53;;;;;;;7.07;3.70;;;;;;;8.99;57.81;101789.78;5275562;28;20035;-71
2023/04/20 06:24:24;;;;;;;8.15;3.97;;;;;;;9.05;57.90;101792.94;5258667;28;20698;-70
2023/04/20 06:26:56;;;;;;;6.57;4.10;;;;;;;9.11;58.23;101782.09;5277337;28;20085;-71
2023/04/20 06:29:27;;;;;;;9.10;3.97;;;;;;;9.11;58.43;101782.09;5278890;28;20023;-71
2023/04/20 06:31:59;;;;;;;8.15;4.00;;;;;;;9.16;58.68;101782.63;5257047;28;20032;-71
2023/04/20 06:34:30;;;;;;;8.35;4.50;;;;;;;9.27;58.40;101774.94;5274120;28;20093;-72
2023/04/20 06:37:01;;;;;;;7.70;3.90;;;;;;;9.25;57.87;101784.69;5274671;28;20118;-71
2023/04/20 06:39:34;;;;;;;9.05;4.20;;;;;;;9.21;57.79;101784.03;5275166;28;20103;-71
2023/04/20 06:42:06;;;;;;;6.73;3.67;;;;;;;9.28;58.10;101774.03;5272428;28;20034;-70
2023/04/20 06:44:37;;;;;;;7.70;3.47;;;;;;;9.32;57.01;101780.75;5273685;28;20028;-70
2023/04/20 06:47:09;;;;;;;7.22;3.85;;;;;;;9.29;57.08;101772.25;5276650;28;20024;-71
2023/04/20 06:49:42;;;;;;;6.00;4.22;;;;;;;9.31;57.36;101763.34;5278160;28;20039;-70
2023/04/20 06:52:13;;;;;;;5.70;4.00;;;;;;;9.32;57.86;101751.97;5255503;28;20027;-70
2023/04/20 06:54:44;;;;;;;5.80;3.85;;;;;;;9.41;57.87;101763.59;5273815;28;20485;-70
2023/04/20 06:57:16;;;;;;;8.43;4.65;;;;;;;9.44;57.82;101766.03;5236703;28;1036079;-70
2023/04/20 06:59:47;;;;;;;5.28;4.00;;;;;;;9.46;57.60;101767.59;5256777;28;20036;-70
2023/04/20 07:02:18;;;;;;;5.20;3.78;;;;;;;9.48;57.92;101767.50;5276112;28;20043;-70
2023/04/20 07:04:49;;;;;;;6.95;4.22;;;;;;;9.48;57.25;101757.88;5278626;28;20025;-70
2023/04/20 07:07:21;;;;;;;12.30;4.25;;;;;;;9.47;57.56;101753.59;5278347;28;20124;-71
2023/04/20 07:09:52;;;;;;;12.93;5.10;;;;;;;9.49;57.63;101766.56;5276963;28;20024;-71
2023/04/20 07:12:23;;;;;;;6.03;3.88;;;;;;;9.54;57.10;101766.25;5275383;28;20036;-71
2023/04/20 07:14:55;;;;;;;8.52;4.75;;;;;;;9.52;57.25;101766.34;5277562;28;20021;-71
2023/04/20 07:17:27;;;;;;;6.60;4.13;;;;;;;9.50;58.13;101757.75;5272833;28;20032;-71
2023/04/20 07:20:04;;;;;;;6.93;4.07;;;;;;;9.53;57.03;101761.97;5275769;28;20032;-72
2023/04/20 07:22:37;;;;;;;6.30;3.60;;;;;;;9.45;57.27;101765.91;5276044;28;20477;-71
2023/04/20 07:25:09;;;;;;;8.27;3.67;;;;;;;9.49;57.04;101763.94;5276230;28;20036;-71
2023/04/20 07:27:40;;;;;;;6.90;3.90;;;;;;;9.42;58.02;101760.03;5279749;28;20024;-71
2023/04/20 07:30:12;;;;;;;7.40;3.92;;;;;;;9.46;57.35;101769.38;5259001;28;20125;-71
2023/04/20 07:32:43;;;;;;;11.02;3.88;;;;;;;9.40;57.50;101765.38;5272840;28;20227;-71
2023/04/20 07:35:15;;;;;;;8.20;4.18;;;;;;;9.40;58.17;101768.00;5274455;28;20024;-71
2023/04/20 07:37:46;;;;;;;7.03;3.85;;;;;;;9.25;57.72;101741.06;5273952;28;20078;-71
2023/04/20 07:40:18;;;;;;;7.20;4.10;;;;;;;9.53;58.29;101759.34;5274854;28;20803;-71
2023/04/20 07:42:49;;;;;;;7.57;3.75;;;;;;;9.53;57.96;101769.81;5259829;28;20470;-71
2023/04/20 07:45:21;;;;;;;6.07;3.72;;;;;;;9.53;57.51;101759.34;5274198;28;20031;-71
2023/04/20 07:47:54;;;;;;;6.78;3.95;;;;;;;9.54;58.31;101761.84;5276812;28;20508;-71
2023/04/20 07:50:25;;;;;;;7.03;3.53;;;;;;;9.63;57.33;101757.81;5255755;28;20498;-71
2023/04/20 07:52:57;;;;;;;9.00;3.75;;;;;;;9.73;57.94;101761.47;5278374;28;20037;-71
2023/04/20 07:55:28;;;;;;;5.53;3.85;;;;;;;9.82;57.58;101760.03;5274059;28;20036;-71
2023/04/20 07:57:59;;;;;;;7.50;2.90;;;;;;;9.82;57.50;101757.41;5274840;28;20489;-71
2023/04/20 08:00:31;;;;;;;11.48;3.63;;;;;;;9.87;56.78;101756.16;5271853;28;20408;-71
2023/04/20 08:03:03;;;;;;;6.78;3.20;;;;;;;10.06;57.32;101762.78;5279102;28;20024;-71
2023/04/20 08:05:36;;;;;;;7.57;3.40;;;;;;;10.16;56.79;101759.44;5276866;28;20048;-71
2023/04/20 08:08:07;;;;;;;6.40;3.50;;;;;;;10.09;56.84;101758.16;5271536;28;21089;-71
2023/04/20 08:10:39;;;;;;;6.55;3.40;;;;;;;10.14;56.30;101745.59;5261183;28;20093;-71
2023/04/20 08:13:10;;;;;;;4.93;3.30;;;;;;;10.24;56.58;101757.13;5268705;28;20027;-71
2023/04/20 08:15:41;;;;;;;5.43;2.97;;;;;;;10.19;55.98;101753.13;5261757;28;20063;-72
2023/04/20 08:18:13;;;;;;;9.68;3.03;;;;;;;10.20;55.50;101744.34;5265185;28;20420;-72
2023/04/20 08:20:45;;;;;;;6.32;3.63;;;;;;;10.30;57.05;101740.16;5274227;28;20215;-72
2023/04/20 08:23:16;;;;;;;7.47;3.20;;;;;;;10.28;56.73;101755.16;5275230;28;20024;-73
2023/04/20 08:25:47;;;;;;;3.70;2.95;;;;;;;10.26;56.19;101733.47;5278834;28;20024;-72
2023/04/20 08:28:18;;;;;;;4.13;3.22;;;;;;;10.33;56.51;101739.13;5281903;28;20031;-72
2023/04/20 08:30:51;;;;;;;5.43;3.28;;;;;;;10.48;56.52;101738.03;5278364;28;20144;-72
2023/04/20 08:33:22;;;;;;;5.03;3.35;;;;;;;10.48;55.71;101730.19;5279178;28;20509;-72
2023/04/20 08:35:53;;;;;;;6.25;3.60;;;;;;;10.63;56.25;101736.13;5261259;28;20035;-72
2023/04/20 08:38:25;;;;;;;4.63;3.08;;;;;;;10.67;55.61;101722.69;5280271;28;20646;-72
2023/04/20 08:40:56;;;;;;;6.70;3.10;;;;;;;10.83;55.04;101724.22;5274885;28;20123;-72
2023/04/20 08:43:27;;;;;;;6.32;3.35;;;;;;;11.07;55.38;101719.84;5255467;28;20066;-72
2023/04/20 08:46:01;;;;;;;8.90;3.42;;;;;;;11.10;54.19;101714.38;5277823;28;20111;-72
2023/04/20 08:48:36;;;;;;;4.03;3.00;;;;;;;11.18;54.45;101719.06;5277839;28;20447;-72
2023/04/20 08:51:08;;;;;;;4.00;2.83;;;;;;;11.08;55.31;101718.06;5265081;28;20115;-72
2023/04/20 08:53:39;;;;;;;4.30;2.67;;;;;;;10.93;54.94;101706.88;5280696;28;20038;-72
2023/04/20 08:56:11;;;;;;;5.85;3.22;;;;;;;10.96;54.74;101710.13;5279283;28;20052;-72
2023/04/20 08:58:42;;;;;;;4.72;2.85;;;;;;;11.09;54.30;101720.53;5281027;28;20040;-72
2023/04/20 09:01:13;;;;;;;5.10;3.33;;;;;;;11.05;54.69;101708.63;5257404;28;20181;-72
2023/04/20 09:03:45;;;;;;;4.75;2.80;;;;;;;11.23;54.65;101706.44;5276750;28;20035;-72
2023/04/20 09:06:17;;;;;;;8.43;4.07;;;;;;;11.25;54.92;101712.41;5271034;28;20078;-72
2023/04/20 09:08:48;;;;;;;3.77;2.87;;;;;;;11.23;54.11;101706.44;5260867;28;20024;-72
2023/04/20 09:11:24;;;;;;;3.83;2.65;;;;;;;11.10;53.70;101701.25;5279473;28;20085;-72
2023/04/20 09:14:04;;;;;;;4.93;3.05;;;;;;;11.20;54.51;101710.09;5274223;28;20035;-72
2023/04/20 09:16:36;;;;;;;4.85;2.70;;;;;;;11.18;54.15;101706.78;5276399;28;20073;-72
2023/04/20 09:19:07;;;;;;;3.60;2.47;;;;;;;11.09;53.49;101706.59;5281349;28;20105;-72
2023/04/20 09:21:47;;;;;;;3.72;2.40;;;;;;;11.29;53.47;101711.25;5278308;28;20025;-72
2023/04/20 09:24:29;;;;;;;3.95;2.85;;;;;;;11.30;53.97;101710.28;5278993;28;20123;-72
2023/04/20 09:27:01;;;;;;;3.67;2.67;;;;;;;11.29;53.25;101710.38;5280577;28;20092;-72
2023/04/20 09:29:33;;;;;;;5.73;3.07;;;;;;;11.28;53.32;101704.28;5281448;28;20460;-72
2023/04/20 09:32:04;;;;;;;6.32;2.60;;;;;;;11.12;53.61;101706.38;5280700;28;20036;-72
2023/04/20 09:34:43;;;;;;;5.65;2.53;;;;;;;11.29;53.60;101713.00;5258597;28;20020;-72
2023/04/20 09:37:15;;;;;;;3.55;2.40;;;;;;;11.33;53.25;101707.44;5281644;28;20035;-72
2023/04/20 09:39:47;;;;;;;6.03;2.72;;;;;;;11.40;53.27;101706.03;5280275;28;20093;-72
2023/04/20 09:42:19;;;;;;;3.40;2.40;;;;;;;11.34;53.55;101697.78;5283473;28;20027;-72
2023/04/20 09:44:52;;;;;;;8.93;2.88;;;;;;;11.33;52.85;101710.06;5278213;28;20024;-72
2023/04/20 09:47:25;;;;;;;4.53;2.67;;;;;;;11.42;53.34;101703.28;5279897;28;20031;-71
2023/04/20 09:49:56;;;;;;;6.00;3.10;;;;;;;11.16;53.31;101694.72;5279698;28;20051;-72
2023/04/20 09:52:29;;;;;;;7.38;2.63;;;;;;;11.23;52.48;101697.72;5281542;28;20440;-72
2023/04/20 09:55:01;;;;;;;4.50;3.10;;;;;;;11.24;52.44;101694.97;5278382;28;20415;-72
2023/04/20 09:57:33;;;;;;;4.22;2.70;;;;;;;11.40;52.77;101686.81;5263904;28;20032;-72
2023/04/20 10:00:06;;;;;;;4.25;2.80;;;;;;;11.38;53.23;101691.34;5279408;28;20032;-72
2023/04/20 10:02:38;;;;;;;6.60;2.50;;;;;;;11.40;52.05;101673.69;5278998;28;20081;-72
2023/04/20 10:05:09;;;;;;;3.67;2.80;;;;;;;11.47;52.34;101668.81;5277734;28;20036;-72
2023/04/20 10:07:41;;;;;;;5.13;2.70;;;;;;;11.84;51.87;101659.00;5280703;28;20302;-72
2023/04/20 10:10:14;;;;;;;4.32;2.25;;;;;;;11.96;51.10;101665.09;5276950;28;20098;-72
2023/04/20 10:13:03;;;;;;;5.70;2.80;;;;;;;12.33;50.79;101650.75;5280720;28;20028;-73
2023/04/20 10:15:36;;;;;;;5.50;3.30;;;;;;;12.14;50.81;101663.66;5277032;28;20451;-72
2023/04/20 10:18:23;;;;;;;4.28;2.38;;;;;;;12.42;50.25;101675.47;5259273;28;20075;-72
2023/04/20 10:21:06;;;;;;;3.78;2.88;;;;;;;12.46;50.67;101670.78;5279525;28;20028;-72
2023/04/20 10:23:50;;;;;;;3.58;2.55;;;;;;;12.41;49.93;101668.53;5279474;28;20024;-72
2023/04/20 10:26:22;;;;;;;4.97;2.83;;;;;;;12.08;49.20;101666.78;5277136;28;20028;-72
2023/04/20 10:28:53;;;;;;;5.32;2.55;;;;;;;11.97;49.12;101674.66;5279478;28;20020;-72
2023/04/20 10:31:34;;;;;;;4.95;2.75;;;;;;;12.01;49.62;101662.94;5279284;28;20036;-73
2023/04/20 10:34:06;;;;;;;5.15;3.03;;;;;;;11.83;50.27;101665.19;5277854;28;20017;-72
2023/04/20 10:36:38;;;;;;;4.90;3.03;;;;;;;11.78;52.06;101667.31;5277421;28;20059;-73
2023/04/20 10:39:13;;;;;;;4.93;2.90;;;;;;;11.78;52.41;101664.69;5278972;28;20103;-72
2023/04/20 10:42:00;;;;;;;4.03;2.75;;;;;;;11.80;51.87;101661.00;5255331;28;20412;-72
2023/04/20 10:44:33;;;;;;;7.47;2.83;;;;;;;11.86;51.50;101649.25;5273588;28;20017;-72
2023/04/20 10:47:04;;;;;;;4.95;3.08;;;;;;;11.97;50.46;101656.25;5261308;28;20036;-72
2023/04/20 10:49:35;;;;;;;5.10;3.08;;;;;;;12.15;52.16;101644.31;5259588;28;20389;-72
2023/04/20 10:52:06;;;;;;;6.07;3.05;;;;;;;12.41;51.52;101644.88;5275256;28;20024;-72
2023/04/20 10:54:39;;;;;;;4.55;2.97;;;;;;;12.59;50.84;101639.97;5280287;28;20417;-72
2023/04/20 10:57:15;;;;;;;8.00;3.22;;;;;;;12.59;49.79;101646.03;5293171;28;20075;-72
2023/04/20 10:59:46;;;;;;;5.40;3.55;;;;;;;12.29;49.36;101646.69;5294313;28;20032;-72
2023/04/20 11:02:17;;;;;;;5.28;2.97;;;;;;;12.37;49.26;101643.47;5292932;28;20548;-72
2023/04/20 11:04:48;;;;;;;3.85;2.95;;;;;;;12.29;48.84;101630.94;5296226;28;20036;-72
2023/04/20 11:07:20;;;;;;;5.18;3.03;;;;;;;12.34;50.36;101639.28;5301638;28;20033;-72
2023/04/20 11:09:55;;;;;;;4.72;2.92;;;;;;;12.46;50.34;101642.72;5279703;28;20032;-72
2023/04/20 11:12:37;;;;;;;8.18;3.63;;;;;;;12.57;50.01;101628.72;5290689;28;20036;-72
2023/04/20 11:15:08;;;;;;;4.45;3.35;;;;;;;12.24;51.19;101632.28;5299810;28;20155;-72
2023/04/20 11:17:40;;;;;;;6.75;3.38;;;;;;;11.95;50.81;101631.94;5300008;28;20581;-72
2023/04/20 11:20:15;;;;;;;7.15;3.47;;;;;;;11.96;51.53;101631.78;5282086;28;20063;-72
2023/04/20 11:22:56;;;;;;;8.50;3.70;;;;;;;12.30;51.30;101627.34;5282632;28;20028;-72
2023/04/20 11:25:28;;;;;;;7.22;4.18;;;;;;;12.15;50.65;101623.31;5294257;28;20103;-72
2023/04/20 11:28:07;;;;;;;4.25;3.42;;;;;;;12.51;51.51;101613.47;5294958;28;20024;-72
2023/04/20 11:30:40;;;;;;;5.22;3.55;;;;;;;12.38;51.80;101614.44;5296169;28;20032;-72
2023/04/20 11:33:12;;;;;;;6.18;3.42;;;;;;;12.64;51.84;101607.06;5280109;28;20080;-73
2023/04/20 11:35:43;;;;;;;4.82;3.60;;;;;;;12.62;50.97;101602.91;5297193;28;20373;-72
2023/04/20 11:38:26;;;;;;;8.88;3.63;;;;;;;12.84;50.45;101605.47;5302059;28;20077;-73
2023/04/20 11:41:03;;;;;;;5.38;3.90;;;;;;;12.51;49.86;101595.06;5277937;28;20473;-72
2023/04/20 11:43:35;;;;;;;6.60;3.60;;;;;;;12.39;50.44;101599.53;5281647;28;20432;-72
2023/04/20 11:46:14;;;;;;;5.72;3.60;;;;;;;12.26;49.88;101604.91;5294917;28;20106;-73
2023/04/20 11:48:46;;;;;;;5.35;3.65;;;;;;;11.89;50.99;101606.97;5285123;28;20032;-72
2023/04/20 11:51:18;;;;;;;4.40;3.50;;;;;;;11.92;51.57;101596.22;5294904;28;20059;-73
2023/04/20 11:53:49;;;;;;;8.20;3.55;;;;;;;11.95;52.68;101595.16;5303000;28;20032;-72